Terminal Aerodrome Forecast
Issued by NWS

Home | Current Version | Previous Version | Text Only | Print | Product List | Glossary On
Versions: 1 2 3 4 5 6 7 8 9 10 11 12 13 14 15 16 17 18 19 20 21 22 23 24 25 26 27 28 29 30 31 32 33 34 35 36 37
000
FTUS41 KRNK 222200 AAB
TAFBCB
TAF AMD
KBCB 222200Z 2222/2318 00000KT 3SM -RA BR OVC005
     FM230100 00000KT 5SM BR SCT007 BKN015
     FM230500 00000KT 2SM BR OVC007
     FM231100 00000KT 1SM BR BKN035
     FM231400 VRB03KT P6SM BKN040
     FM231500 22004KT P6SM SCT040=

USA.gov is the U.S. government's official web portal to all federal, state and local government web resources and services.